sensor_id;sensor_type;location;lat;lon;timestamp;P1;durP1;ratioP1;P2;durP2;ratioP2
17967;SDS011;9109;48.050;11.696;2023-02-04T04:47:46;16.67;;;3.30;;
17967;SDS011;9109;48.050;11.696;2023-02-04T04:51:12;12.73;;;3.00;;
17967;SDS011;9109;48.050;11.696;2023-02-04T04:54:53;11.30;;;2.77;;
17967;SDS011;9109;48.050;11.696;2023-02-04T04:58:05;12.30;;;2.90;;
17967;SDS011;9109;48.050;11.696;2023-02-04T05:13:12;19.73;;;2.57;;
17967;SDS011;9109;48.050;11.696;2023-02-04T05:20:54;13.17;;;2.70;;
17967;SDS011;9109;48.050;11.696;2023-02-04T05:24:37;24.47;;;2.70;;
17967;SDS011;9109;48.050;11.696;2023-02-04T05:30:09;13.13;;;2.63;;
17967;SDS011;9109;48.050;11.696;2023-02-04T05:32:23;16.67;;;2.30;;
17967;SDS011;9109;48.050;11.696;2023-02-04T05:36:29;12.03;;;2.70;;
17967;SDS011;9109;48.050;11.696;2023-02-04T05:40:16;9.20;;;2.27;;
17967;SDS011;9109;48.050;11.696;2023-02-04T05:44:18;14.23;;;2.97;;
17967;SDS011;9109;48.050;11.696;2023-02-04T05:47:48;16.20;;;2.63;;
17967;SDS011;9109;48.050;11.696;2023-02-04T05:55:34;16.23;;;2.87;;
17967;SDS011;9109;48.050;11.696;2023-02-04T05:59:23;11.87;;;2.37;;
17967;SDS011;9109;48.050;11.696;2023-02-04T06:10:15;9.90;;;2.47;;
17967;SDS011;9109;48.050;11.696;2023-02-04T06:17:13;11.60;;;3.27;;
17967;SDS011;9109;48.050;11.696;2023-02-04T06:20:55;19.57;;;2.67;;
17967;SDS011;9109;48.050;11.696;2023-02-04T06:24:40;21.43;;;2.60;;
17967;SDS011;9109;48.050;11.696;2023-02-04T06:32:24;18.63;;;2.60;;
17967;SDS011;9109;48.050;11.696;2023-02-04T06:43:33;13.97;;;2.67;;
17967;SDS011;9109;48.050;11.696;2023-02-04T06:53:34;12.20;;;2.40;;
17967;SDS011;9109;48.050;11.696;2023-02-04T07:27:15;16.77;;;3.37;;
17967;SDS011;9109;48.050;11.696;2023-02-04T07:30:17;16.17;;;2.93;;
17967;SDS011;9109;48.050;11.696;2023-02-04T07:33:19;17.37;;;2.90;;
17967;SDS011;9109;48.050;11.696;2023-02-04T07:36:21;18.67;;;3.10;;
17967;SDS011;9109;48.050;11.696;2023-02-04T07:39:25;9.77;;;3.27;;
17967;SDS011;9109;48.050;11.696;2023-02-04T07:42:28;10.03;;;2.67;;
17967;SDS011;9109;48.050;11.696;2023-02-04T07:45:30;6.47;;;2.20;;
17967;SDS011;9109;48.050;11.696;2023-02-04T07:48:32;8.40;;;2.43;;
17967;SDS011;9109;48.050;11.696;2023-02-04T07:51:34;11.90;;;2.43;;
17967;SDS011;9109;48.050;11.696;2023-02-04T07:54:35;9.90;;;2.40;;
17967;SDS011;9109;48.050;11.696;2023-02-04T07:57:39;14.80;;;3.03;;
17967;SDS011;9109;48.050;11.696;2023-02-04T08:00:40;9.43;;;2.43;;
17967;SDS011;9109;48.050;11.696;2023-02-04T08:03:42;14.90;;;2.50;;
17967;SDS011;9109;48.050;11.696;2023-02-04T08:06:44;11.47;;;2.30;;
17967;SDS011;9109;48.050;11.696;2023-02-04T08:09:46;17.00;;;2.50;;
17967;SDS011;9109;48.050;11.696;2023-02-04T08:12:49;11.00;;;2.20;;
17967;SDS011;9109;48.050;11.696;2023-02-04T08:15:51;14.97;;;2.63;;
17967;SDS011;9109;48.050;11.696;2023-02-04T08:18:53;8.70;;;2.10;;
17967;SDS011;9109;48.050;11.696;2023-02-04T08:21:55;8.20;;;2.50;;
17967;SDS011;9109;48.050;11.696;2023-02-04T08:24:57;9.20;;;2.67;;
17967;SDS011;9109;48.050;11.696;2023-02-04T08:28:00;20.50;;;2.50;;
17967;SDS011;9109;48.050;11.696;2023-02-04T08:31:02;11.60;;;2.40;;
17967;SDS011;9109;48.050;11.696;2023-02-04T08:34:04;15.40;;;3.30;;
17967;SDS011;9109;48.050;11.696;2023-02-04T08:37:07;9.47;;;2.33;;
17967;SDS011;9109;48.050;11.696;2023-02-04T08:40:09;15.00;;;3.50;;
17967;SDS011;9109;48.050;11.696;2023-02-04T08:43:13;15.47;;;2.30;;
17967;SDS011;9109;48.050;11.696;2023-02-04T08:46:15;12.77;;;1.87;;
17967;SDS011;9109;48.050;11.696;2023-02-04T08:49:16;25.10;;;3.20;;
17967;SDS011;9109;48.050;11.696;2023-02-04T08:52:18;13.83;;;2.50;;
17967;SDS011;9109;48.050;11.696;2023-02-04T08:55:20;15.83;;;3.00;;
17967;SDS011;9109;48.050;11.696;2023-02-04T08:58:23;15.00;;;2.47;;
17967;SDS011;9109;48.050;11.696;2023-02-04T09:01:25;16.87;;;2.30;;
17967;SDS011;9109;48.050;11.696;2023-02-04T09:04:27;9.53;;;2.97;;
17967;SDS011;9109;48.050;11.696;2023-02-04T09:07:29;9.80;;;2.10;;
17967;SDS011;9109;48.050;11.696;2023-02-04T09:10:31;18.87;;;3.07;;
17967;SDS011;9109;48.050;11.696;2023-02-04T09:13:34;11.97;;;2.07;;
17967;SDS011;9109;48.050;11.696;2023-02-04T09:16:37;13.03;;;2.97;;
17967;SDS011;9109;48.050;11.696;2023-02-04T09:19:38;15.90;;;2.73;;
17967;SDS011;9109;48.050;11.696;2023-02-04T09:22:40;21.63;;;3.10;;
17967;SDS011;9109;48.050;11.696;2023-02-04T09:25:42;16.67;;;3.70;;
17967;SDS011;9109;48.050;11.696;2023-02-04T09:28:46;9.73;;;2.73;;
17967;SDS011;9109;48.050;11.696;2023-02-04T09:31:48;13.97;;;2.40;;
17967;SDS011;9109;48.050;11.696;2023-02-04T09:34:50;17.87;;;3.67;;
17967;SDS011;9109;48.050;11.696;2023-02-04T09:37:52;20.33;;;2.90;;
17967;SDS011;9109;48.050;11.696;2023-02-04T09:40:55;13.30;;;2.50;;
17967;SDS011;9109;48.050;11.696;2023-02-04T09:44:01;13.97;;;2.63;;
17967;SDS011;9109;48.050;11.696;2023-02-04T09:47:05;12.00;;;2.47;;
17967;SDS011;9109;48.050;11.696;2023-02-04T09:50:12;11.93;;;2.73;;
17967;SDS011;9109;48.050;11.696;2023-02-04T09:53:16;9.47;;;3.10;;
17967;SDS011;9109;48.050;11.696;2023-02-04T09:56:21;12.47;;;2.40;;
17967;SDS011;9109;48.050;11.696;2023-02-04T09:59:27;18.50;;;2.67;;
17967;SDS011;9109;48.050;11.696;2023-02-04T10:02:29;12.10;;;2.50;;
17967;SDS011;9109;48.050;11.696;2023-02-04T10:05:31;11.53;;;2.10;;
17967;SDS011;9109;48.050;11.696;2023-02-04T10:08:36;7.53;;;1.83;;
17967;SDS011;9109;48.050;11.696;2023-02-04T10:11:38;10.77;;;2.83;;
17967;SDS011;9109;48.050;11.696;2023-02-04T10:14:43;11.17;;;2.00;;
17967;SDS011;9109;48.050;11.696;2023-02-04T10:17:45;11.20;;;3.07;;
17967;SDS011;9109;48.050;11.696;2023-02-04T10:20:48;10.43;;;2.20;;
17967;SDS011;9109;48.050;11.696;2023-02-04T10:23:51;9.67;;;2.10;;
17967;SDS011;9109;48.050;11.696;2023-02-04T10:27:05;8.10;;;1.50;;
17967;SDS011;9109;48.050;11.696;2023-02-04T10:30:14;20.03;;;1.90;;
17967;SDS011;9109;48.050;11.696;2023-02-04T10:33:21;5.17;;;1.47;;
17967;SDS011;9109;48.050;11.696;2023-02-04T10:36:24;3.90;;;1.40;;
17967;SDS011;9109;48.050;11.696;2023-02-04T10:39:26;6.73;;;1.00;;
17967;SDS011;9109;48.050;11.696;2023-02-04T10:42:29;2.53;;;1.13;;
17967;SDS011;9109;48.050;11.696;2023-02-04T10:45:33;8.23;;;1.10;;
17967;SDS011;9109;48.050;11.696;2023-02-04T10:48:38;2.57;;;1.20;;
17967;SDS011;9109;48.050;11.696;2023-02-04T10:51:40;1.53;;;0.83;;
17967;SDS011;9109;48.050;11.696;2023-02-04T10:54:42;7.40;;;1.00;;
17967;SDS011;9109;48.050;11.696;2023-02-04T10:57:46;3.97;;;1.40;;
17967;SDS011;9109;48.050;11.696;2023-02-04T11:00:51;3.83;;;1.40;;
17967;SDS011;9109;48.050;11.696;2023-02-04T11:03:52;2.13;;;1.00;;
17967;SDS011;9109;48.050;11.696;2023-02-04T11:06:54;4.33;;;1.20;;
17967;SDS011;9109;48.050;11.696;2023-02-04T11:09:56;6.47;;;1.13;;
17967;SDS011;9109;48.050;11.696;2023-02-04T11:13:00;3.03;;;1.20;;
17967;SDS011;9109;48.050;11.696;2023-02-04T11:16:09;4.10;;;1.47;;
17967;SDS011;9109;48.050;11.696;2023-02-04T11:19:13;5.17;;;1.10;;
17967;SDS011;9109;48.050;11.696;2023-02-04T11:22:20;3.93;;;1.10;;
17967;SDS011;9109;48.050;11.696;2023-02-04T11:25:30;3.73;;;1.50;;
17967;SDS011;9109;48.050;11.696;2023-02-04T11:28:44;9.23;;;1.47;;
17967;SDS011;9109;48.050;11.696;2023-02-04T11:31:59;8.07;;;1.57;;
17967;SDS011;9109;48.050;11.696;2023-02-04T11:35:22;5.43;;;1.43;;
17967;SDS011;9109;48.050;11.696;2023-02-04T11:38:26;1.90;;;1.30;;
17967;SDS011;9109;48.050;11.696;2023-02-04T11:41:30;4.13;;;1.53;;
17967;SDS011;9109;48.050;11.696;2023-02-04T11:44:32;5.07;;;1.70;;
17967;SDS011;9109;48.050;11.696;2023-02-04T11:47:36;2.73;;;1.37;;
17967;SDS011;9109;48.050;11.696;2023-02-04T11:50:38;3.53;;;1.67;;
17967;SDS011;9109;48.050;11.696;2023-02-04T11:53:40;2.00;;;1.60;;
17967;SDS011;9109;48.050;11.696;2023-02-04T11:56:43;7.53;;;1.80;;
17967;SDS011;9109;48.050;11.696;2023-02-04T11:59:45;4.67;;;1.80;;
17967;SDS011;9109;48.050;11.696;2023-02-04T12:02:49;4.97;;;1.60;;
17967;SDS011;9109;48.050;11.696;2023-02-04T12:05:57;3.50;;;1.60;;
17967;SDS011;9109;48.050;11.696;2023-02-04T12:09:05;2.17;;;1.50;;
17967;SDS011;9109;48.050;11.696;2023-02-04T12:12:08;5.70;;;1.70;;
17967;SDS011;9109;48.050;11.696;2023-02-04T12:15:13;3.07;;;1.50;;
17967;SDS011;9109;48.050;11.696;2023-02-04T12:18:18;3.87;;;1.53;;
17967;SDS011;9109;48.050;11.696;2023-02-04T12:21:19;3.77;;;1.30;;
17967;SDS011;9109;48.050;11.696;2023-02-04T12:24:21;3.17;;;1.43;;
17967;SDS011;9109;48.050;11.696;2023-02-04T12:27:24;11.47;;;1.30;;
17967;SDS011;9109;48.050;11.696;2023-02-04T12:30:26;4.43;;;1.50;;
17967;SDS011;9109;48.050;11.696;2023-02-04T12:33:29;4.93;;;1.97;;
17967;SDS011;9109;48.050;11.696;2023-02-04T12:36:31;2.43;;;1.40;;
17967;SDS011;9109;48.050;11.696;2023-02-04T12:39:33;3.47;;;1.80;;
17967;SDS011;9109;48.050;11.696;2023-02-04T12:42:35;4.27;;;1.57;;
17967;SDS011;9109;48.050;11.696;2023-02-04T12:45:37;4.53;;;1.60;;
17967;SDS011;9109;48.050;11.696;2023-02-04T12:48:45;4.53;;;1.50;;
17967;SDS011;9109;48.050;11.696;2023-02-04T12:51:48;7.00;;;1.87;;
17967;SDS011;9109;48.050;11.696;2023-02-04T12:54:50;2.87;;;1.63;;
17967;SDS011;9109;48.050;11.696;2023-02-04T12:57:52;4.67;;;1.50;;
17967;SDS011;9109;48.050;11.696;2023-02-04T13:00:55;5.97;;;1.90;;
17967;SDS011;9109;48.050;11.696;2023-02-04T13:03:58;5.20;;;1.67;;
17967;SDS011;9109;48.050;11.696;2023-02-04T13:07:00;5.87;;;1.50;;
17967;SDS011;9109;48.050;11.696;2023-02-04T13:10:02;1.60;;;1.40;;
17967;SDS011;9109;48.050;11.696;2023-02-04T13:13:04;4.07;;;1.33;;
17967;SDS011;9109;48.050;11.696;2023-02-04T13:16:06;3.87;;;1.83;;
17967;SDS011;9109;48.050;11.696;2023-02-04T13:19:09;6.33;;;1.83;;
17967;SDS011;9109;48.050;11.696;2023-02-04T13:22:11;4.37;;;1.67;;
17967;SDS011;9109;48.050;11.696;2023-02-04T13:25:13;11.30;;;1.80;;
17967;SDS011;9109;48.050;11.696;2023-02-04T13:28:15;5.00;;;1.60;;
17967;SDS011;9109;48.050;11.696;2023-02-04T13:31:17;3.90;;;1.40;;
17967;SDS011;9109;48.050;11.696;2023-02-04T13:34:20;2.53;;;1.37;;
17967;SDS011;9109;48.050;11.696;2023-02-04T13:37:22;5.93;;;1.40;;
17967;SDS011;9109;48.050;11.696;2023-02-04T13:40:24;6.67;;;1.73;;
17967;SDS011;9109;48.050;11.696;2023-02-04T13:43:26;2.80;;;1.43;;
17967;SDS011;9109;48.050;11.696;2023-02-04T13:46:28;3.20;;;1.50;;
17967;SDS011;9109;48.050;11.696;2023-02-04T13:49:31;5.07;;;1.77;;
17967;SDS011;9109;48.050;11.696;2023-02-04T13:52:33;4.43;;;1.63;;
17967;SDS011;9109;48.050;11.696;2023-02-04T13:55:35;2.87;;;1.50;;
17967;SDS011;9109;48.050;11.696;2023-02-04T13:58:36;1.97;;;1.40;;
17967;SDS011;9109;48.050;11.696;2023-02-04T14:01:42;3.03;;;1.43;;
17967;SDS011;9109;48.050;11.696;2023-02-04T14:04:45;4.37;;;1.70;;
17967;SDS011;9109;48.050;11.696;2023-02-04T14:07:47;3.67;;;1.70;;
17967;SDS011;9109;48.050;11.696;2023-02-04T14:10:49;3.80;;;1.30;;
17967;SDS011;9109;48.050;11.696;2023-02-04T14:13:51;3.13;;;1.50;;
17967;SDS011;9109;48.050;11.696;2023-02-04T14:16:53;2.83;;;1.37;;
17967;SDS011;9109;48.050;11.696;2023-02-04T14:19:56;4.17;;;1.50;;
17967;SDS011;9109;48.050;11.696;2023-02-04T14:22:58;5.23;;;1.30;;
17967;SDS011;9109;48.050;11.696;2023-02-04T14:26:02;3.13;;;1.20;;
17967;SDS011;9109;48.050;11.696;2023-02-04T14:29:04;3.40;;;1.60;;
17967;SDS011;9109;48.050;11.696;2023-02-04T14:32:06;5.20;;;2.30;;
17967;SDS011;9109;48.050;11.696;2023-02-04T14:35:09;8.20;;;3.30;;
17967;SDS011;9109;48.050;11.696;2023-02-04T14:38:11;30.33;;;12.23;;
17967;SDS011;9109;48.050;11.696;2023-02-04T14:41:15;10.40;;;4.40;;
17967;SDS011;9109;48.050;11.696;2023-02-04T14:44:19;28.27;;;8.80;;
17967;SDS011;9109;48.050;11.696;2023-02-04T14:47:20;9.60;;;4.10;;
17967;SDS011;9109;48.050;11.696;2023-02-04T14:50:24;7.80;;;2.57;;
17967;SDS011;9109;48.050;11.696;2023-02-04T14:53:27;7.60;;;4.07;;
17967;SDS011;9109;48.050;11.696;2023-02-04T14:56:29;12.83;;;6.10;;
17967;SDS011;9109;48.050;11.696;2023-02-04T14:59:31;9.77;;;4.60;;
17967;SDS011;9109;48.050;11.696;2023-02-04T15:02:33;9.53;;;5.17;;
17967;SDS011;9109;48.050;11.696;2023-02-04T15:05:36;5.53;;;2.63;;
17967;SDS011;9109;48.050;11.696;2023-02-04T15:08:38;8.70;;;2.70;;
17967;SDS011;9109;48.050;11.696;2023-02-04T15:11:40;7.50;;;2.07;;
17967;SDS011;9109;48.050;11.696;2023-02-04T15:14:42;2.50;;;1.80;;
17967;SDS011;9109;48.050;11.696;2023-02-04T15:17:44;3.87;;;2.03;;
17967;SDS011;9109;48.050;11.696;2023-02-04T15:20:47;3.20;;;1.53;;
17967;SDS011;9109;48.050;11.696;2023-02-04T15:23:49;1.93;;;1.40;;
17967;SDS011;9109;48.050;11.696;2023-02-04T15:26:50;3.07;;;1.30;;
17967;SDS011;9109;48.050;11.696;2023-02-04T15:29:52;5.40;;;1.20;;
17967;SDS011;9109;48.050;11.696;2023-02-04T15:32:54;2.40;;;1.17;;
17967;SDS011;9109;48.050;11.696;2023-02-04T15:35:57;1.20;;;1.10;;
17967;SDS011;9109;48.050;11.696;2023-02-04T15:38:59;3.37;;;1.50;;
17967;SDS011;9109;48.050;11.696;2023-02-04T15:42:01;2.93;;;1.43;;
17967;SDS011;9109;48.050;11.696;2023-02-04T15:45:03;2.93;;;1.30;;
17967;SDS011;9109;48.050;11.696;2023-02-04T15:48:05;2.50;;;1.30;;
17967;SDS011;9109;48.050;11.696;2023-02-04T15:51:09;2.63;;;1.40;;
17967;SDS011;9109;48.050;11.696;2023-02-04T15:54:11;3.53;;;1.77;;
17967;SDS011;9109;48.050;11.696;2023-02-04T15:57:13;3.10;;;1.50;;
17967;SDS011;9109;48.050;11.696;2023-02-04T16:00:15;2.70;;;1.40;;
17967;SDS011;9109;48.050;11.696;2023-02-04T16:03:17;5.17;;;1.70;;
17967;SDS011;9109;48.050;11.696;2023-02-04T16:06:20;6.57;;;1.80;;
17967;SDS011;9109;48.050;11.696;2023-02-04T16:09:22;4.20;;;1.40;;
17967;SDS011;9109;48.050;11.696;2023-02-04T16:12:24;2.13;;;1.37;;
17967;SDS011;9109;48.050;11.696;2023-02-04T16:15:26;2.93;;;1.73;;
17967;SDS011;9109;48.050;11.696;2023-02-04T16:18:28;3.33;;;2.00;;
17967;SDS011;9109;48.050;11.696;2023-02-04T16:21:31;6.73;;;3.73;;
17967;SDS011;9109;48.050;11.696;2023-02-04T16:24:33;10.37;;;4.20;;
17967;SDS011;9109;48.050;11.696;2023-02-04T16:27:35;2.63;;;1.63;;
17967;SDS011;9109;48.050;11.696;2023-02-04T16:30:37;2.47;;;1.67;;
17967;SDS011;9109;48.050;11.696;2023-02-04T16:33:39;3.03;;;1.93;;
17967;SDS011;9109;48.050;11.696;2023-02-04T16:36:42;5.40;;;1.63;;
17967;SDS011;9109;48.050;11.696;2023-02-04T16:39:44;4.97;;;2.07;;
17967;SDS011;9109;48.050;11.696;2023-02-04T16:42:47;4.80;;;2.10;;
17967;SDS011;9109;48.050;11.696;2023-02-04T16:45:49;3.00;;;1.47;;
17967;SDS011;9109;48.050;11.696;2023-02-04T16:48:51;2.70;;;1.80;;
17967;SDS011;9109;48.050;11.696;2023-02-04T16:51:54;3.73;;;1.90;;
17967;SDS011;9109;48.050;11.696;2023-02-04T16:54:56;3.70;;;1.90;;
17967;SDS011;9109;48.050;11.696;2023-02-04T16:57:58;9.17;;;2.70;;
17967;SDS011;9109;48.050;11.696;2023-02-04T17:01:00;4.73;;;2.80;;
17967;SDS011;9109;48.050;11.696;2023-02-04T17:04:02;3.43;;;2.07;;
17967;SDS011;9109;48.050;11.696;2023-02-04T17:07:05;5.57;;;3.03;;
17967;SDS011;9109;48.050;11.696;2023-02-04T17:10:07;6.57;;;3.30;;
17967;SDS011;9109;48.050;11.696;2023-02-04T17:13:10;9.07;;;4.10;;
17967;SDS011;9109;48.050;11.696;2023-02-04T17:16:11;6.57;;;3.70;;
17967;SDS011;9109;48.050;11.696;2023-02-04T17:19:14;7.40;;;3.83;;
17967;SDS011;9109;48.050;11.696;2023-02-04T17:22:19;8.10;;;3.83;;
17967;SDS011;9109;48.050;11.696;2023-02-04T17:25:21;8.50;;;3.77;;
17967;SDS011;9109;48.050;11.696;2023-02-04T17:28:23;6.33;;;3.83;;
17967;SDS011;9109;48.050;11.696;2023-02-04T17:31:25;11.50;;;3.77;;
17967;SDS011;9109;48.050;11.696;2023-02-04T17:34:27;8.20;;;3.40;;
17967;SDS011;9109;48.050;11.696;2023-02-04T17:37:30;6.77;;;2.83;;
17967;SDS011;9109;48.050;11.696;2023-02-04T17:40:32;15.07;;;6.03;;
17967;SDS011;9109;48.050;11.696;2023-02-04T17:43:34;7.43;;;3.60;;
17967;SDS011;9109;48.050;11.696;2023-02-04T17:46:36;9.93;;;4.07;;
17967;SDS011;9109;48.050;11.696;2023-02-04T17:49:38;7.23;;;4.10;;
17967;SDS011;9109;48.050;11.696;2023-02-04T17:52:41;11.93;;;4.17;;
17967;SDS011;9109;48.050;11.696;2023-02-04T17:55:43;8.57;;;4.33;;
17967;SDS011;9109;48.050;11.696;2023-02-04T17:58:45;8.20;;;3.90;;
17967;SDS011;9109;48.050;11.696;2023-02-04T18:01:47;8.73;;;3.13;;
17967;SDS011;9109;48.050;11.696;2023-02-04T18:04:49;4.00;;;2.77;;
17967;SDS011;9109;48.050;11.696;2023-02-04T18:07:55;13.37;;;3.03;;
17967;SDS011;9109;48.050;11.696;2023-02-04T18:11:00;5.83;;;2.87;;
17967;SDS011;9109;48.050;11.696;2023-02-04T18:14:06;9.50;;;3.37;;
17967;SDS011;9109;48.050;11.696;2023-02-04T18:17:14;3.57;;;2.47;;
17967;SDS011;9109;48.050;11.696;2023-02-04T18:20:16;5.67;;;2.40;;
17967;SDS011;9109;48.050;11.696;2023-02-04T18:23:19;5.53;;;2.43;;
17967;SDS011;9109;48.050;11.696;2023-02-04T18:26:22;3.27;;;1.83;;
17967;SDS011;9109;48.050;11.696;2023-02-04T18:29:28;4.00;;;2.20;;
17967;SDS011;9109;48.050;11.696;2023-02-04T18:32:32;4.30;;;2.13;;
17967;SDS011;9109;48.050;11.696;2023-02-04T18:35:40;4.37;;;2.17;;
17967;SDS011;9109;48.050;11.696;2023-02-04T18:38:44;4.10;;;2.50;;
17967;SDS011;9109;48.050;11.696;2023-02-04T18:41:47;6.67;;;2.73;;
17967;SDS011;9109;48.050;11.696;2023-02-04T18:44:51;6.83;;;3.43;;
17967;SDS011;9109;48.050;11.696;2023-02-04T18:47:54;12.40;;;4.97;;
17967;SDS011;9109;48.050;11.696;2023-02-04T18:50:57;13.57;;;5.30;;
17967;SDS011;9109;48.050;11.696;2023-02-04T18:57:33;15.27;;;6.27;;
17967;SDS011;9109;48.050;11.696;2023-02-04T19:00:36;9.47;;;4.70;;
17967;SDS011;9109;48.050;11.696;2023-02-04T19:03:43;9.83;;;4.40;;
17967;SDS011;9109;48.050;11.696;2023-02-04T19:06:48;7.30;;;3.10;;
17967;SDS011;9109;48.050;11.696;2023-02-04T19:09:53;8.30;;;3.03;;
17967;SDS011;9109;48.050;11.696;2023-02-04T19:12:59;7.07;;;3.47;;
17967;SDS011;9109;48.050;11.696;2023-02-04T19:16:19;8.40;;;3.53;;
17967;SDS011;9109;48.050;11.696;2023-02-04T19:19:33;6.63;;;3.80;;
17967;SDS011;9109;48.050;11.696;2023-02-04T19:22:38;6.47;;;3.03;;
17967;SDS011;9109;48.050;11.696;2023-02-04T19:25:46;4.60;;;3.10;;
17967;SDS011;9109;48.050;11.696;2023-02-04T19:28:49;11.30;;;3.37;;
17967;SDS011;9109;48.050;11.696;2023-02-04T19:31:52;8.67;;;2.93;;
17967;SDS011;9109;48.050;11.696;2023-02-04T19:35:06;8.83;;;3.13;;
17967;SDS011;9109;48.050;11.696;2023-02-04T19:38:37;8.00;;;3.57;;
17967;SDS011;9109;48.050;11.696;2023-02-04T19:41:43;10.73;;;4.40;;
17967;SDS011;9109;48.050;11.696;2023-02-04T19:44:49;12.13;;;4.63;;
17967;SDS011;9109;48.050;11.696;2023-02-04T19:47:52;8.10;;;3.93;;
17967;SDS011;9109;48.050;11.696;2023-02-04T19:50:55;10.53;;;4.20;;
17967;SDS011;9109;48.050;11.696;2023-02-04T19:53:59;9.43;;;4.67;;
17967;SDS011;9109;48.050;11.696;2023-02-04T19:57:15;10.47;;;4.13;;
17967;SDS011;9109;48.050;11.696;2023-02-04T20:00:38;7.00;;;3.83;;
17967;SDS011;9109;48.050;11.696;2023-02-04T20:03:43;9.23;;;4.20;;
17967;SDS011;9109;48.050;11.696;2023-02-04T20:06:46;7.70;;;3.43;;
17967;SDS011;9109;48.050;11.696;2023-02-04T20:09:50;11.33;;;3.30;;
17967;SDS011;9109;48.050;11.696;2023-02-04T20:12:55;5.10;;;3.00;;
17967;SDS011;9109;48.050;11.696;2023-02-04T20:16:00;7.03;;;3.20;;
17967;SDS011;9109;48.050;11.696;2023-02-04T20:19:11;3.90;;;2.80;;
17967;SDS011;9109;48.050;11.696;2023-02-04T20:25:50;5.97;;;3.17;;
17967;SDS011;9109;48.050;11.696;2023-02-04T20:28:53;8.00;;;3.70;;
17967;SDS011;9109;48.050;11.696;2023-02-04T20:31:55;6.23;;;3.70;;
17967;SDS011;9109;48.050;11.696;2023-02-04T20:34:58;8.07;;;4.30;;
17967;SDS011;9109;48.050;11.696;2023-02-04T20:38:27;5.63;;;3.77;;
17967;SDS011;9109;48.050;11.696;2023-02-04T20:41:29;8.77;;;4.63;;
17967;SDS011;9109;48.050;11.696;2023-02-04T20:44:38;12.13;;;4.30;;
17967;SDS011;9109;48.050;11.696;2023-02-04T20:47:40;9.77;;;4.03;;
17967;SDS011;9109;48.050;11.696;2023-02-04T20:50:43;9.00;;;4.43;;
17967;SDS011;9109;48.050;11.696;2023-02-04T20:53:46;8.23;;;4.37;;
17967;SDS011;9109;48.050;11.696;2023-02-04T20:56:49;8.43;;;4.80;;
17967;SDS011;9109;48.050;11.696;2023-02-04T20:59:53;9.00;;;4.87;;
17967;SDS011;9109;48.050;11.696;2023-02-04T21:02:56;9.40;;;4.70;;
17967;SDS011;9109;48.050;11.696;2023-02-04T21:06:00;11.07;;;4.80;;
17967;SDS011;9109;48.050;11.696;2023-02-04T21:09:03;15.57;;;5.73;;
17967;SDS011;9109;48.050;11.696;2023-02-04T21:12:09;10.77;;;5.27;;
17967;SDS011;9109;48.050;11.696;2023-02-04T21:15:12;12.17;;;4.83;;
17967;SDS011;9109;48.050;11.696;2023-02-04T21:18:14;13.83;;;5.57;;
17967;SDS011;9109;48.050;11.696;2023-02-04T21:21:16;5.80;;;3.37;;
17967;SDS011;9109;48.050;11.696;2023-02-04T21:24:19;8.77;;;3.40;;
17967;SDS011;9109;48.050;11.696;2023-02-04T21:27:21;5.93;;;3.67;;
17967;SDS011;9109;48.050;11.696;2023-02-04T21:30:24;6.30;;;3.63;;
17967;SDS011;9109;48.050;11.696;2023-02-04T21:33:29;8.60;;;3.93;;
17967;SDS011;9109;48.050;11.696;2023-02-04T21:36:31;8.67;;;4.27;;
17967;SDS011;9109;48.050;11.696;2023-02-04T21:39:33;9.90;;;4.30;;
17967;SDS011;9109;48.050;11.696;2023-02-04T21:42:35;10.10;;;5.10;;
17967;SDS011;9109;48.050;11.696;2023-02-04T21:45:38;10.60;;;5.87;;
17967;SDS011;9109;48.050;11.696;2023-02-04T21:48:40;14.23;;;5.57;;
17967;SDS011;9109;48.050;11.696;2023-02-04T21:51:42;14.37;;;6.63;;
17967;SDS011;9109;48.050;11.696;2023-02-04T21:54:43;11.90;;;5.83;;
17967;SDS011;9109;48.050;11.696;2023-02-04T21:57:46;11.70;;;5.43;;
17967;SDS011;9109;48.050;11.696;2023-02-04T22:00:50;12.53;;;5.07;;
17967;SDS011;9109;48.050;11.696;2023-02-04T22:03:53;6.50;;;3.73;;
17967;SDS011;9109;48.050;11.696;2023-02-04T22:06:55;12.30;;;4.57;;
17967;SDS011;9109;48.050;11.696;2023-02-04T22:09:57;9.03;;;4.20;;
17967;SDS011;9109;48.050;11.696;2023-02-04T22:12:59;12.60;;;5.40;;
17967;SDS011;9109;48.050;11.696;2023-02-04T22:16:02;14.27;;;4.13;;
17967;SDS011;9109;48.050;11.696;2023-02-04T22:19:05;10.43;;;4.73;;
17967;SDS011;9109;48.050;11.696;2023-02-04T22:22:07;10.53;;;5.40;;
17967;SDS011;9109;48.050;11.696;2023-02-04T22:25:09;14.57;;;5.33;;
17967;SDS011;9109;48.050;11.696;2023-02-04T22:28:12;14.37;;;5.17;;
17967;SDS011;9109;48.050;11.696;2023-02-04T22:31:15;11.30;;;4.93;;
17967;SDS011;9109;48.050;11.696;2023-02-04T22:34:17;13.63;;;6.17;;
17967;SDS011;9109;48.050;11.696;2023-02-04T22:37:18;12.80;;;5.70;;
17967;SDS011;9109;48.050;11.696;2023-02-04T22:40:20;12.70;;;5.47;;
17967;SDS011;9109;48.050;11.696;2023-02-04T22:43:22;11.30;;;5.33;;
17967;SDS011;9109;48.050;11.696;2023-02-04T22:46:26;11.73;;;5.80;;
17967;SDS011;9109;48.050;11.696;2023-02-04T22:49:28;9.53;;;4.80;;
17967;SDS011;9109;48.050;11.696;2023-02-04T22:52:31;8.67;;;4.73;;
17967;SDS011;9109;48.050;11.696;2023-02-04T22:55:33;10.83;;;5.27;;
17967;SDS011;9109;48.050;11.696;2023-02-04T22:58:35;11.77;;;5.10;;
17967;SDS011;9109;48.050;11.696;2023-02-04T23:01:39;14.20;;;5.20;;
17967;SDS011;9109;48.050;11.696;2023-02-04T23:04:40;10.13;;;4.90;;
17967;SDS011;9109;48.050;11.696;2023-02-04T23:07:43;11.63;;;4.80;;
17967;SDS011;9109;48.050;11.696;2023-02-04T23:10:45;13.97;;;5.00;;
17967;SDS011;9109;48.050;11.696;2023-02-04T23:13:47;9.03;;;5.27;;
17967;SDS011;9109;48.050;11.696;2023-02-04T23:16:51;9.93;;;4.97;;
17967;SDS011;9109;48.050;11.696;2023-02-04T23:19:53;9.87;;;4.70;;
17967;SDS011;9109;48.050;11.696;2023-02-04T23:22:55;11.57;;;4.77;;
17967;SDS011;9109;48.050;11.696;2023-02-04T23:25:57;10.53;;;4.67;;
17967;SDS011;9109;48.050;11.696;2023-02-04T23:29:02;10.40;;;5.30;;
17967;SDS011;9109;48.050;11.696;2023-02-04T23:32:05;9.97;;;4.63;;
17967;SDS011;9109;48.050;11.696;2023-02-04T23:35:08;8.57;;;4.53;;
17967;SDS011;9109;48.050;11.696;2023-02-04T23:38:10;7.07;;;3.93;;
17967;SDS011;9109;48.050;11.696;2023-02-04T23:41:12;9.80;;;4.60;;
17967;SDS011;9109;48.050;11.696;2023-02-04T23:44:14;9.70;;;5.13;;
17967;SDS011;9109;48.050;11.696;2023-02-04T23:47:17;9.70;;;4.60;;
17967;SDS011;9109;48.050;11.696;2023-02-04T23:50:19;8.27;;;4.67;;
17967;SDS011;9109;48.050;11.696;2023-02-04T23:53:21;9.10;;;4.57;;
17967;SDS011;9109;48.050;11.696;2023-02-04T23:56:24;8.43;;;4.33;;
17967;SDS011;9109;48.050;11.696;2023-02-04T23:59:26;11.53;;;4.23;;
